Cardak, Turkey

2:25 AM EEST on August 04, 2015 (GMT +0300)
Cardak Air Base | | Change Station
CLOSE
Current Station
Airport
Location: Cardak,
Elevation: 2785 ft
Nearby Weather Stations

Elev 2785 ft 37.79 °N, 29.70 °E | Updated 35 minutes ago

Light Thunderstorms and Rain
Light Thunderstorm Rain
70 °F
Feels Like 70 °F
N
14
Wind Variable Wind from East

Today
High -- | Low -- °F
--% Chance of Precip.
Yesterday
High -- | Low -- °F
Precip. -- in
6:06 AM 8:07 PM
Waning Gibbous, 83% visible
Pressure 30.01 in
Visibility 6.2 miles
Clouds Few 2500 ft
Scattered Clouds 2900 ft
Mostly Cloudy 9000 ft
Dew Point 61 °F
Humidity 73%
Rainfall 0.00 in
Snow Depth Not available.
UV 0 out of 12
Pollen Not available.
Air Quality Not available.
Flu Activity Not available.
METAR LTAY 032250Z 09012KT 9999 -TSRA FEW025CB SCT029 BKN090 21/16 Q1016

More Conditions Fewer Conditions

Pressure 30.01 in
Visibility 6.2 miles
Clouds Few 2500 ft
Scattered Clouds 2900 ft
Mostly Cloudy 9000 ft
Dew Point 61 °F
Humidity 73%
Rainfall 0.00 in
Snow Depth Not available.
UV 0 out of 12
Pollen Not available.
Air Quality Not available.
Flu Activity Not available.
METAR LTAY 032250Z 09012KT 9999 -TSRA FEW025CB SCT029 BKN090 21/16 Q1016

More Conditions Fewer Conditions

10-Day Weather Forecast

×

Almanac

Astronomy

Aug. 04, 2015 Rise Set
Actual Time
Civil Twilight
Nautical Twilight
Astronomical Twilight
Moon
Length of Visible Light
Length of Day
Tomorrow will be .
, % of the Moon is Illuminated

Today's Extremes

Country Highs Country Lows

Community

WunderPhotos

Upload Photos

1,843,786 photos uploaded!

WunderBlogs® & News

Nearby

Air Quality

  Air Quality AQ Index Pollutant
Not available.

Snow Depth

Station Depth Elevation

Earthquake Activity

City Distance Mag. Time & Date
Minimum magnitude displayed is 2.5.

Coastal Water Temperatures

Place Temperature

Stations

Nearby Weather Stations

Station Location Temp. Windchill Dew Point Humidity Wind Precip. Elev Updated Type